Latest Coastal Weather Observations for Yarram Airport

IDV60701

Issued at 3:05 am EST Thursday 31 July 2014 (issued every 10 minutes, with the page automatically refreshed every 10 minutes)

About coastal observations | Map of coastal stations | Coastal observations for VIC | Marine services | Other Formats
Station Details ID: 085151 Name: YARRAM AIRPORT Lat: -38.56 Lon: 146.75 Height: 17.9 m
Data from the previous 72 hours. | See also: Recent months at Yarram Airport
Date/Time
EST
Temp

°C
Wind Pressure Rain
since 9am
mm
Weather Cloud Vis
km
Sea
Height
m
Swell
Dir
 
Speed
knots
Gust
knots
hPa Trend Height
m
Period
s
Dir
31/03:00am 15.5 WNW 11 17 1003.5 - 0.0 - - - - - - -
31/02:35am 16.1 NW 15 26 1003.8 - 0.0 - - - - - - -
31/02:30am 15.8 NW 11 21 1003.9 - 0.0 - - - - - - -
31/02:21am 15.5 NW 15 26 1004.1 - 0.0 - - - - - - -
31/02:00am 15.6 NNW 13 26 1004.5 - 0.0 - - - - - - -
31/01:38am 15.4 NW 17 27 1004.9 - 0.0 - - - - - - -
31/01:30am 15.5 NW 19 27 1004.9 - 0.0 - - - - - - -
31/01:06am 15.7 NW 20 30 1005.3 - 0.0 - - - - - - -
31/01:00am 15.9 NW 21 28 1005.3 - 0.0 - - - - - - -
31/12:30am 16.2 NW 22 32 1005.2 - 0.0 - - - - - - -
31/12:08am 16.4 NNW 17 27 1005.4 - 0.0 - - - - - - -
31/12:00am 16.0 NW 19 27 1005.6 - 0.0 - - - - - - -
 
Date/Time
EST
Temp

°C
Wind Pressure Rain
since 9am
mm
Weather Cloud Vis
km
Sea
Height
m
Swell
Dir
 
Speed
knots
Gust
knots
hPa Trend Height
m
Period
s
Dir
30/11:30pm 16.1 WNW 20 31 1006.1 - 0.0 - - - - - - -
30/11:05pm 15.8 NW 22 32 1006.1 - 0.0 - - - - - - -
30/11:00pm 16.0 NW 23 32 1006.3 - 0.0 - - - - - - -
30/10:30pm 16.6 NW 22 33 1006.4 - 0.0 - - - - - - -
30/10:04pm 16.9 WNW 24 41 1006.5 - 0.0 - - - - - - -
30/10:00pm 16.4 WNW 21 31 1006.7 - 0.0 - - - - - - -
30/09:30pm 16.6 WNW 19 37 1006.8 - 0.0 - - - - - - -
30/09:27pm 16.8 WNW 19 37 1006.6 - 0.0 - - - - - - -
30/09:08pm 16.1 NW 17 27 1006.9 - 0.0 - - - - - - -
30/09:00pm 16.2 NW 16 24 1007.1 - 0.0 - - - - - - -
30/08:30pm 15.9 NW 14 23 1006.8 - 0.0 - - - - - - -
30/08:00pm 16.1 NW 18 28 1006.6 - 0.0 - - - - - - -
30/07:32pm 16.5 WNW 19 32 1006.8 - 0.0 - - - - - - -
30/07:30pm 16.5 WNW 19 27 1006.9 - 0.0 - - - - - - -
30/07:03pm 16.4 WNW 21 32 1007.1 - 0.0 - - - - - - -
30/07:00pm 16.1 WNW 21 29 1007.2 - 0.0 - - - - - - -
30/06:49pm 16.3 NW 18 33 1007.2 - 0.0 - - - - - - -
30/06:30pm 16.2 NW 17 24 1006.9 - 0.0 - - - - - - -
30/06:00pm 16.4 NW 19 26 1007.1 - 0.0 - - - - - - -
30/05:30pm 16.7 NW 17 29 1006.9 - 0.0 - - - - - - -
30/05:13pm 16.8 NW 18 31 1006.8 - 0.0 - - - - - - -
30/05:00pm 16.3 NW 18 27 1006.9 - 0.0 - - - - - - -
30/04:31pm 17.0 NW 17 27 1007.0 - 0.0 - - - - - - -
30/04:30pm 17.0 NW 18 27 1007.0 - 0.0 - - - - - - -
30/04:07pm 17.5 NW 16 26 1007.1 - 0.0 - - - - - - -
30/04:00pm 17.6 NW 17 26 1007.1 - 0.0 - - - - - - -
30/03:30pm 17.9 NW 17 25 1007.1 - 0.0 - - - - - - -
30/03:19pm 17.8 NW 15 25 1006.9 - 0.0 - - - - - - -
30/03:00pm 17.9 WNW 16 24 1007.1 - 0.0 - - - - - - -
30/02:30pm 17.8 NW 16 22 1007.1 - 0.0 - - - - - - -
30/02:00pm 17.0 NW 16 21 1007.4 - 0.0 - - - - - - -
30/01:30pm 17.4 WNW 19 29 1007.7 - 0.0 - - - - - - -
30/01:16pm 16.8 WNW 19 29 1008.1 - 0.0 - - - - - - -
30/01:00pm 16.7 WNW 18 27 1008.4 - 0.0 - - - - - - -
30/12:53pm 17.0 NW 16 27 1008.4 - 0.0 - - - - - - -
30/12:30pm 17.4 WNW 18 25 1008.6 - 0.0 - - - - - - -
30/12:00pm 16.5 NW 20 33 1009.3 - 0.0 - - - - - - -
30/11:30am 16.1 WNW 19 29 1009.4 - 0.0 - - - - - - -
30/11:03am 15.7 WNW 19 29 1009.8 - 0.0 - - - - - - -
30/11:00am 15.8 WNW 21 29 1010.0 - 0.0 - - - - - - -
30/10:30am 16.3 WNW 18 28 1010.1 - 0.0 - - - - - - -
30/10:10am 16.1 WNW 16 26 1010.2 - 0.0 - - - - - - -
30/10:00am 15.5 WNW 18 25 1010.2 - 0.0 - - - - - - -
30/09:30am 14.8 WNW 16 33 1009.7 - 0.0 - - - - - - -
30/09:16am 14.5 WNW 15 26 1010.0 - 0.0 - - - - - - -
30/09:00am 14.1 WNW 13 20 1010.2 - 1.2 - - - - - - -
30/08:30am 13.5 WNW 14 21 1010.0 - 1.2 - - - - - - -
30/08:00am 13.1 WNW 15 23 1010.1 - 1.2 - - - - - - -
30/07:30am 12.3 WNW 14 21 1009.8 - 1.2 - - - - - - -
30/07:09am 12.7 WNW 16 26 1009.5 - 1.2 - - - - - - -
30/07:00am 12.4 WNW 17 26 1009.5 - 1.2 - - - - - - -
30/06:53am 12.7 WNW 16 26 1009.3 - 1.2 - - - - - - -
30/06:30am 12.7 WNW 14 20 1009.2 - 1.2 - - - - - - -
30/06:00am 11.4 WNW 11 15 1009.2 - 1.2 - - - - - - -
30/05:38am 12.0 W 21 31 1008.9 - 1.2 - - - - - - -
30/05:30am 12.6 W 23 32 1008.8 - 1.2 - - - - - - -
30/05:26am 12.6 W 22 32 1008.7 - 1.2 - - - - - - -
30/05:00am 12.5 WNW 20 27 1008.8 - 1.2 - - - - - - -
30/04:38am 12.5 W 20 31 1008.8 - 1.0 - - - - - - -
30/04:30am 12.6 WNW 19 25 1008.7 - 1.0 - - - - - - -
30/04:00am 13.0 W 17 24 1008.4 - 1.0 - - - - - - -
30/03:30am 13.3 WNW 19 29 1008.3 - 1.0 - - - - - - -
30/03:28am 13.3 WNW 19 29 1008.3 - 1.0 - - - - - - -
30/03:00am 13.8 W 21 29 1008.1 - 1.0 - - - - - - -
30/02:49am 13.8 WNW 21 31 1008.1 - 1.0 - - - - - - -
30/02:30am 14.0 W 20 28 1008.2 - 1.0 - - - - - - -
30/02:00am 14.1 W 20 27 1008.4 - 1.0 - - - - - - -
30/01:37am 14.1 WNW 20 31 1007.9 - 1.0 - - - - - - -
30/01:30am 13.3 W 19 26 1007.9 - 1.0 - - - - - - -
30/01:07am 13.9 WNW 18 29 1007.5 - 1.0 - - - - - - -
30/01:00am 13.3 WNW 15 23 1007.6 - 1.0 - - - - - - -
30/12:30am 13.6 WNW 18 28 1007.6 - 1.0 - - - - - - -
30/12:28am 13.7 WNW 18 28 1007.6 - 1.0 - - - - - - -
30/12:00am 13.9 WNW 21 28 1007.3 - 1.0 Recent precip. - - - - - -
 
Date/Time
EST
Temp

°C
Wind Pressure Rain
since 9am
mm
Weather Cloud Vis
km
Sea
Height
m
Swell
Dir
 
Speed
knots
Gust
knots
hPa Trend Height
m
Period
s
Dir
29/11:44pm 13.5 WNW 16 26 1007.4 - 1.0 - - - - - - -
29/11:30pm 12.9 W 14 17 1007.7 - 1.0 - - - - - - -
29/11:00pm 13.2 W 11 14 1007.3 - 0.0 - - - - - - -
29/10:37pm 14.6 WNW 15 25 1006.9 - 0.0 - - - - - - -
29/10:30pm 13.7 W 13 18 1007.0 - 0.0 - - - - - - -
29/10:00pm 14.8 WNW 21 31 1006.7 - 0.0 - - - - - - -
29/09:35pm 14.9 NW 24 35 1006.0 - 0.0 - - - - - - -
29/09:30pm 14.7 NW 23 31 1006.0 - 0.0 - - - - - - -
29/09:15pm 14.4 NW 24 34 1006.0 - 0.0 - - - - - - -
29/09:00pm 14.8 WNW 23 31 1005.7 - 0.0 - - - - - - -
29/08:30pm 15.5 WNW 25 35 1005.6 - 0.0 - - - - - - -
29/08:00pm 14.8 NW 22 32 1005.9 - 0.0 - - - - - - -
29/07:30pm 15.3 WNW 22 34 1005.8 - 0.0 - - - - - - -
29/07:06pm 15.1 NW 24 37 1005.2 - 0.0 - - - - - - -
29/07:00pm 15.1 NW 23 32 1005.4 - 0.0 - - - - - - -
29/06:30pm 14.6 WNW 20 31 1004.9 - 0.0 - - - - - - -
29/06:05pm 13.7 NW 21 31 1004.7 - 0.0 - - - - - - -
29/06:00pm 13.9 NW 22 31 1004.6 - 0.0 - - - - - - -
29/05:30pm 14.8 NW 25 42 1004.5 - 0.0 - - - - - - -
29/05:28pm 15.2 NW 24 42 1004.4 - 0.0 - - - - - - -
29/05:00pm 15.3 NW 22 32 1003.8 - 0.0 - - - - - - -
29/04:30pm 15.9 NW 27 39 1003.4 - 0.0 - - - - - - -
29/04:00pm 15.9 NW 28 38 1003.6 - 0.0 - - - - - - -
29/03:30pm 16.1 NW 24 35 1003.3 - 0.0 - - - - - - -
29/03:00pm 16.1 NW 24 34 1003.5 - 0.0 - - - - - - -
29/02:31pm 16.3 NW 25 35 1003.7 - 0.0 - - - - - - -
29/02:30pm 16.2 NW 26 35 1003.7 - 0.0 - - - - - - -
29/02:00pm 16.1 NW 27 41 1003.3 - 0.0 - - - - - - -
29/01:30pm 16.0 NW 28 40 1003.2 - 0.0 - - - - - - -
29/01:00pm 15.9 NW 25 38 1003.5 - 0.0 - - - - - - -
29/12:37pm 15.5 NW 24 34 1004.3 - 0.0 - - - - - - -
29/12:30pm 15.6 NW 26 34 1004.3 - 0.0 - - - - - - -
29/12:00pm 15.9 NW 26 37 1004.8 - 0.0 - - - - - - -
29/11:30am 15.8 NW 23 36 1005.0 - 0.0 - - - - - - -
29/11:00am 16.1 NW 27 39 1005.0 - 0.0 - - - - - - -
29/10:30am 15.6 NW 24 35 1005.1 - 0.0 - - - - - - -
29/10:03am 15.4 NW 27 37 1005.6 - 0.0 - - - - - - -
29/10:00am 15.8 NW 26 35 1005.7 - 0.0 - - - - - - -
29/09:30am 15.4 NW 25 38 1005.7 - 0.0 - - - - - - -
29/09:08am 15.2 NW 26 36 1006.0 - 0.0 - - - - - - -
29/09:00am 15.2 NW 27 36 1006.1 - 0.0 - - - - - - -
29/08:47am 14.8 NW 27 37 1006.0 - 0.0 - - - - - - -
29/08:30am 14.4 NW 28 37 1006.1 - 0.0 - - - - - - -
29/08:00am 14.0 NW 25 41 1006.2 - 0.0 - - - - - - -
29/07:51am 14.4 NW 26 41 1006.2 - 0.0 - - - - - - -
29/07:31am 14.2 NW 21 31 1006.6 - 0.0 - - - - - - -
29/07:30am 14.6 NW 22 31 1006.5 - 0.0 - - - - - - -
29/07:03am 14.6 NW 25 35 1006.7 - 0.0 - - - - - - -
29/07:00am 14.4 NW 23 31 1006.6 - 0.0 - - - - - - -
29/06:33am 14.4 WNW 20 30 1006.6 - 0.0 - - - - - - -
29/06:30am 14.5 NW 20 29 1006.6 - 0.0 - - - - - - -
29/06:00am 14.3 NW 20 33 1006.6 - 0.0 - - - - - - -
29/05:30am 14.1 NW 17 30 1006.7 - 0.0 - - - - - - -
29/05:24am 14.2 NW 19 30 1006.8 - 0.0 - - - - - - -
29/05:00am 14.0 NW 17 26 1007.1 - 0.0 - - - - - - -
29/04:30am 14.0 NNW 17 27 1006.8 - 0.0 - - - - - - -
29/04:00am 13.8 NW 19 29 1007.3 - 0.0 - - - - - - -
29/03:51am 13.8 NW 17 29 1007.2 - 0.0 - - - - - - -
29/03:30am 13.3 NW 16 23 1007.4 - 0.0 - - - - - - -
29/03:09am 14.0 NW 20 33 1007.7 - 0.0 - - - - - - -
29/03:00am 14.0 NW 21 29 1007.8 - 0.0 - - - - - - -
29/02:34am 13.8 NW 17 27 1008.5 - 0.0 - - - - - - -
29/02:30am 13.7 NW 19 27 1008.5 - 0.0 - - - - - - -
29/02:00am 13.8 NW 19 30 1009.1 - 0.0 - - - - - - -
29/01:30am 14.0 NW 18 28 1009.0 - 0.0 - - - - - - -
29/01:10am 14.3 NW 19 34 1009.1 - 0.0 - - - - - - -
29/01:00am 13.7 NW 19 25 1009.3 - 0.0 - - - - - - -
29/12:30am 14.2 NW 17 24 1009.7 - 0.0 - - - - - - -
29/12:00am 14.2 NW 16 25 1010.1 - 0.0 - - - - - - -
 
Date/Time
EST
Temp

°C
Wind Pressure Rain
since 9am
mm
Weather Cloud Vis
km
Sea
Height
m
Swell
Dir
 
Speed
knots
Gust
knots
hPa Trend Height
m
Period
s
Dir
28/11:30pm 13.6 NW 14 19 1010.4 - 0.0 - - - - - - -
28/11:00pm 14.1 NW 17 22 1010.4 - 0.0 - - - - - - -
28/10:30pm 14.1 NW 13 19 1010.8 - 0.0 - - - - - - -
28/10:00pm 13.9 NW 9 17 1010.8 - 0.0 - - - - - - -
28/09:30pm 14.0 NW 11 16 1010.9 - 0.0 - - - - - - -
28/09:00pm 13.9 NW 11 16 1011.1 - 0.0 - - - - - - -
28/08:30pm 14.1 WNW 13 20 1010.8 - 0.0 - - - - - - -
28/08:00pm 14.6 WNW 13 21 1010.5 - 0.0 - - - - - - -
28/07:30pm 14.9 NW 15 25 1010.2 - 0.0 - - - - - - -
28/07:28pm 15.0 NW 15 25 1010.0 - 0.0 - - - - - - -
28/07:00pm 14.3 WNW 11 14 1010.6 - 0.0 - - - - - - -
28/06:30pm 14.7 W 12 16 1010.5 - 0.0 - - - - - - -
28/06:00pm 15.0 NW 11 15 1010.1 - 0.0 - - - - - - -
28/05:30pm 13.7 NW 6 9 1010.1 - 0.0 - - - - - - -
28/05:00pm 15.2 WNW 7 11 1010.5 - 0.0 - - - - - - -
28/04:30pm 17.5 NW 7 11 1010.2 - 0.0 - - - - - - -
28/04:00pm 18.1 NW 8 11 1010.1 - 0.0 - - - - - - -
28/03:30pm 18.3 NW 11 17 1010.1 - 0.0 - - - - - - -
28/03:00pm 18.7 WNW 13 18 1010.5 - 0.0 - - - - - - -
28/02:30pm 18.6 NW 18 30 1010.6 - 0.0 - - - - - - -
28/02:27pm 18.7 NW 16 30 1010.6 - 0.0 - - - - - - -
28/02:00pm 18.7 WNW 16 23 1010.7 - 0.0 - - - - - - -
28/01:30pm 18.7 NW 14 19 1011.0 - 0.0 - - - - - - -
28/01:00pm 18.5 NW 14 20 1011.6 - 0.0 - - - - - - -
28/12:30pm 18.2 NW 14 19 1012.1 - 0.0 - - - - - - -
28/12:00pm 18.0 NW 15 24 1012.8 - 0.0 - - - - - - -
28/11:30am 17.7 NW 13 19 1013.1 - 0.0 - - - - - - -
28/11:00am 17.2 NW 12 22 1013.6 - 0.0 - - - - - - -
28/10:30am 16.4 NNW 12 19 1013.9 - 0.0 - - - - - - -
28/10:00am 15.8 NNW 12 24 1014.2 - 0.0 - - - - - - -
28/09:30am 15.4 NNW 17 24 1014.1 - 0.0 - - - - - - -
28/09:00am 14.4 NNW 12 20 1014.4 - 0.0 - - - - - - -
28/08:30am 13.3 N 13 18 1014.4 - 0.0 - - - - - - -
28/08:00am 13.5 NNW 11 16 1014.6 - 0.0 - - - - - - -
28/07:30am 12.9 NW 11 17 1014.8 - 0.0 - - - - - - -
28/07:00am 11.7 NW 8 12 1014.9 - 0.0 - - - - - - -
28/06:30am 11.1 NW 6 11 1014.8 - 0.0 - - - - - - -
28/06:00am 12.2 NNW 12 16 1014.8 - 0.0 - - - - - - -
28/05:30am 12.1 NNW 9 12 1014.8 - 0.0 - - - - - - -
28/05:00am 12.1 NNW 10 14 1014.9 - 0.0 - - - - - - -
28/04:30am 11.5 NNW 9 11 1015.0 - 0.0 - - - - - - -
28/04:00am 11.6 WNW 6 8 1015.5 - 0.0 - - - - - - -
28/03:30am 12.4 NW 12 17 1015.6 - 0.0 - - - - - - -

Other Formats:

Comma delimited format used in spreadsheet applications
http://www.bom.gov.au/fwo/IDV60701/IDV60701.95890.axf

JavaScript Object Notation format (JSON) in row-major order
http://www.bom.gov.au/fwo/IDV60701/IDV60701.95890.json